sensor_id;sensor_type;location;lat;lon;timestamp;pressure;altitude;pressure_sealevel;temperature
24639;BMP180;1641;51.306;12.384;2023-07-29T00:00:44;99504.00;;;22.70
24639;BMP180;1641;51.306;12.384;2023-07-29T00:03:10;99517.00;;;22.70
24639;BMP180;1641;51.306;12.384;2023-07-29T00:05:36;99514.00;;;22.70
24639;BMP180;1641;51.306;12.384;2023-07-29T00:08:02;99506.00;;;22.60
24639;BMP180;1641;51.306;12.384;2023-07-29T00:10:27;99490.00;;;22.40
24639;BMP180;1641;51.306;12.384;2023-07-29T00:12:52;99489.00;;;22.60
24639;BMP180;1641;51.306;12.384;2023-07-29T00:15:18;99502.00;;;22.50
24639;BMP180;1641;51.306;12.384;2023-07-29T00:17:43;99497.00;;;22.60
24639;BMP180;1641;51.306;12.384;2023-07-29T00:20:11;99496.00;;;22.40
24639;BMP180;1641;51.306;12.384;2023-07-29T00:22:37;99495.00;;;22.40
24639;BMP180;1641;51.306;12.384;2023-07-29T00:25:02;99486.00;;;22.10
24639;BMP180;1641;51.306;12.384;2023-07-29T00:27:27;99496.00;;;22.10
24639;BMP180;1641;51.306;12.384;2023-07-29T00:29:53;99497.00;;;22.40
24639;BMP180;1641;51.306;12.384;2023-07-29T00:32:18;99490.00;;;22.40
24639;BMP180;1641;51.306;12.384;2023-07-29T00:34:43;99484.00;;;22.50
24639;BMP180;1641;51.306;12.384;2023-07-29T00:37:09;99487.00;;;22.40
24639;BMP180;1641;51.306;12.384;2023-07-29T00:39:36;99477.00;;;22.40
24639;BMP180;1641;51.306;12.384;2023-07-29T00:42:02;99484.00;;;22.30
24639;BMP180;1641;51.306;12.384;2023-07-29T00:44:27;99477.00;;;22.20
24639;BMP180;1641;51.306;12.384;2023-07-29T00:46:53;99475.00;;;21.80
24639;BMP180;1641;51.306;12.384;2023-07-29T00:49:19;99474.00;;;21.90
24639;BMP180;1641;51.306;12.384;2023-07-29T00:51:45;99483.00;;;21.80
24639;BMP180;1641;51.306;12.384;2023-07-29T00:54:11;99477.00;;;21.60
24639;BMP180;1641;51.306;12.384;2023-07-29T00:56:36;99482.00;;;21.70
24639;BMP180;1641;51.306;12.384;2023-07-29T00:59:04;99473.00;;;21.70
24639;BMP180;1641;51.306;12.384;2023-07-29T01:01:30;99477.00;;;22.10
24639;BMP180;1641;51.306;12.384;2023-07-29T01:03:55;99473.00;;;22.10
24639;BMP180;1641;51.306;12.384;2023-07-29T01:06:58;99477.00;;;22.30
24639;BMP180;1641;51.306;12.384;2023-07-29T01:12:35;99474.00;;;21.90
24639;BMP180;1641;51.306;12.384;2023-07-29T01:15:09;99486.00;;;21.90
24639;BMP180;1641;51.306;12.384;2023-07-29T01:18:05;99480.00;;;21.90
24639;BMP180;1641;51.306;12.384;2023-07-29T01:20:33;99482.00;;;21.80
24639;BMP180;1641;51.306;12.384;2023-07-29T01:23:01;99474.00;;;21.70
24639;BMP180;1641;51.306;12.384;2023-07-29T01:25:26;99483.00;;;21.70
24639;BMP180;1641;51.306;12.384;2023-07-29T01:27:52;99474.00;;;21.80
24639;BMP180;1641;51.306;12.384;2023-07-29T01:30:18;99490.00;;;21.90
24639;BMP180;1641;51.306;12.384;2023-07-29T01:33:05;99482.00;;;21.70
24639;BMP180;1641;51.306;12.384;2023-07-29T01:35:39;99485.00;;;21.60
24639;BMP180;1641;51.306;12.384;2023-07-29T01:38:09;99483.00;;;21.30
24639;BMP180;1641;51.306;12.384;2023-07-29T01:40:39;99484.00;;;21.60
24639;BMP180;1641;51.306;12.384;2023-07-29T01:43:05;99485.00;;;21.30
24639;BMP180;1641;51.306;12.384;2023-07-29T01:45:33;99489.00;;;21.20
24639;BMP180;1641;51.306;12.384;2023-07-29T01:48:03;99491.00;;;21.30
24639;BMP180;1641;51.306;12.384;2023-07-29T01:50:28;99487.00;;;21.40
24639;BMP180;1641;51.306;12.384;2023-07-29T01:52:53;99485.00;;;21.40
24639;BMP180;1641;51.306;12.384;2023-07-29T01:55:25;99488.00;;;21.50
24639;BMP180;1641;51.306;12.384;2023-07-29T01:57:50;99485.00;;;21.60
24639;BMP180;1641;51.306;12.384;2023-07-29T02:00:18;99491.00;;;21.80
24639;BMP180;1641;51.306;12.384;2023-07-29T02:02:43;99498.00;;;22.10
24639;BMP180;1641;51.306;12.384;2023-07-29T02:05:08;99488.00;;;22.00
24639;BMP180;1641;51.306;12.384;2023-07-29T02:07:34;99485.00;;;21.80
24639;BMP180;1641;51.306;12.384;2023-07-29T02:09:59;99485.00;;;21.60
24639;BMP180;1641;51.306;12.384;2023-07-29T02:12:25;99492.00;;;21.60
24639;BMP180;1641;51.306;12.384;2023-07-29T02:14:50;99485.00;;;21.50
24639;BMP180;1641;51.306;12.384;2023-07-29T02:17:15;99479.00;;;21.70
24639;BMP180;1641;51.306;12.384;2023-07-29T02:19:40;99481.00;;;21.70
24639;BMP180;1641;51.306;12.384;2023-07-29T02:22:06;99474.00;;;22.10
24639;BMP180;1641;51.306;12.384;2023-07-29T02:24:31;99482.00;;;22.10
24639;BMP180;1641;51.306;12.384;2023-07-29T02:26:56;99478.00;;;21.90
24639;BMP180;1641;51.306;12.384;2023-07-29T02:29:28;99478.00;;;22.00
24639;BMP180;1641;51.306;12.384;2023-07-29T02:31:54;99468.00;;;22.30
24639;BMP180;1641;51.306;12.384;2023-07-29T02:34:19;99472.00;;;22.10
24639;BMP180;1641;51.306;12.384;2023-07-29T02:36:44;99475.00;;;21.80
24639;BMP180;1641;51.306;12.384;2023-07-29T02:39:10;99468.00;;;21.90
24639;BMP180;1641;51.306;12.384;2023-07-29T02:41:36;99475.00;;;21.90
24639;BMP180;1641;51.306;12.384;2023-07-29T02:44:01;99461.00;;;21.60
24639;BMP180;1641;51.306;12.384;2023-07-29T02:46:26;99458.00;;;21.50
24639;BMP180;1641;51.306;12.384;2023-07-29T02:48:52;99467.00;;;21.60
24639;BMP180;1641;51.306;12.384;2023-07-29T02:51:17;99471.00;;;21.50
24639;BMP180;1641;51.306;12.384;2023-07-29T02:53:43;99469.00;;;21.30
24639;BMP180;1641;51.306;12.384;2023-07-29T02:56:08;99476.00;;;21.10
24639;BMP180;1641;51.306;12.384;2023-07-29T02:58:40;99470.00;;;21.10
24639;BMP180;1641;51.306;12.384;2023-07-29T03:01:06;99472.00;;;21.00
24639;BMP180;1641;51.306;12.384;2023-07-29T03:03:32;99481.00;;;20.90
24639;BMP180;1641;51.306;12.384;2023-07-29T03:06:00;99469.00;;;21.00
24639;BMP180;1641;51.306;12.384;2023-07-29T03:08:26;99477.00;;;20.90
24639;BMP180;1641;51.306;12.384;2023-07-29T03:10:51;99475.00;;;21.00
24639;BMP180;1641;51.306;12.384;2023-07-29T03:13:17;99477.00;;;21.00
24639;BMP180;1641;51.306;12.384;2023-07-29T03:15:42;99475.00;;;21.10
24639;BMP180;1641;51.306;12.384;2023-07-29T03:18:07;99462.00;;;21.30
24639;BMP180;1641;51.306;12.384;2023-07-29T03:20:32;99469.00;;;21.10
24639;BMP180;1641;51.306;12.384;2023-07-29T03:22:58;99470.00;;;21.10
24639;BMP180;1641;51.306;12.384;2023-07-29T03:25:23;99471.00;;;21.10
24639;BMP180;1641;51.306;12.384;2023-07-29T03:27:51;99466.00;;;21.30
24639;BMP180;1641;51.306;12.384;2023-07-29T03:30:19;99468.00;;;21.30
24639;BMP180;1641;51.306;12.384;2023-07-29T03:32:46;99469.00;;;21.30
24639;BMP180;1641;51.306;12.384;2023-07-29T03:35:11;99469.00;;;21.30
24639;BMP180;1641;51.306;12.384;2023-07-29T03:37:37;99477.00;;;21.30
24639;BMP180;1641;51.306;12.384;2023-07-29T03:40:02;99473.00;;;21.00
24639;BMP180;1641;51.306;12.384;2023-07-29T03:42:34;99469.00;;;20.90
24639;BMP180;1641;51.306;12.384;2023-07-29T03:44:59;99466.00;;;20.90
24639;BMP180;1641;51.306;12.384;2023-07-29T03:47:24;99475.00;;;21.10
24639;BMP180;1641;51.306;12.384;2023-07-29T03:49:50;99463.00;;;21.40
24639;BMP180;1641;51.306;12.384;2023-07-29T03:52:15;99468.00;;;21.20
24639;BMP180;1641;51.306;12.384;2023-07-29T03:54:40;99468.00;;;21.20
24639;BMP180;1641;51.306;12.384;2023-07-29T03:57:06;99452.00;;;21.20
24639;BMP180;1641;51.306;12.384;2023-07-29T03:59:31;99451.00;;;21.30
24639;BMP180;1641;51.306;12.384;2023-07-29T04:01:56;99463.00;;;21.20
24639;BMP180;1641;51.306;12.384;2023-07-29T04:04:22;99461.00;;;21.30
24639;BMP180;1641;51.306;12.384;2023-07-29T04:06:47;99465.00;;;21.20
24639;BMP180;1641;51.306;12.384;2023-07-29T04:09:12;99459.00;;;21.00
24639;BMP180;1641;51.306;12.384;2023-07-29T04:11:38;99462.00;;;20.90
24639;BMP180;1641;51.306;12.384;2023-07-29T04:14:03;99461.00;;;21.20
24639;BMP180;1641;51.306;12.384;2023-07-29T04:16:28;99461.00;;;21.20
24639;BMP180;1641;51.306;12.384;2023-07-29T04:18:54;99462.00;;;21.20
24639;BMP180;1641;51.306;12.384;2023-07-29T04:21:20;99460.00;;;21.30
24639;BMP180;1641;51.306;12.384;2023-07-29T04:23:45;99457.00;;;21.40
24639;BMP180;1641;51.306;12.384;2023-07-29T04:26:10;99455.00;;;21.30
24639;BMP180;1641;51.306;12.384;2023-07-29T04:28:35;99457.00;;;21.70
24639;BMP180;1641;51.306;12.384;2023-07-29T04:31:01;99451.00;;;21.80
24639;BMP180;1641;51.306;12.384;2023-07-29T04:33:26;99452.00;;;21.90
24639;BMP180;1641;51.306;12.384;2023-07-29T04:35:51;99444.00;;;21.70
24639;BMP180;1641;51.306;12.384;2023-07-29T04:38:17;99455.00;;;21.90
24639;BMP180;1641;51.306;12.384;2023-07-29T04:40:42;99452.00;;;22.00
24639;BMP180;1641;51.306;12.384;2023-07-29T04:43:07;99453.00;;;22.00
24639;BMP180;1641;51.306;12.384;2023-07-29T04:45:33;99453.00;;;22.10
24639;BMP180;1641;51.306;12.384;2023-07-29T04:47:58;99454.00;;;21.70
24639;BMP180;1641;51.306;12.384;2023-07-29T04:50:24;99459.00;;;21.80
24639;BMP180;1641;51.306;12.384;2023-07-29T04:52:49;99451.00;;;22.10
24639;BMP180;1641;51.306;12.384;2023-07-29T04:55:14;99452.00;;;22.20
24639;BMP180;1641;51.306;12.384;2023-07-29T04:57:43;99447.00;;;22.30
24639;BMP180;1641;51.306;12.384;2023-07-29T05:00:08;99445.00;;;22.10
24639;BMP180;1641;51.306;12.384;2023-07-29T05:02:35;99442.00;;;21.90
24639;BMP180;1641;51.306;12.384;2023-07-29T05:05:00;99444.00;;;21.90
24639;BMP180;1641;51.306;12.384;2023-07-29T05:07:25;99450.00;;;21.90
24639;BMP180;1641;51.306;12.384;2023-07-29T05:09:56;99442.00;;;22.10
24639;BMP180;1641;51.306;12.384;2023-07-29T05:12:22;99439.00;;;22.50
24639;BMP180;1641;51.306;12.384;2023-07-29T05:14:48;99433.00;;;22.50
24639;BMP180;1641;51.306;12.384;2023-07-29T05:17:13;99433.00;;;22.70
24639;BMP180;1641;51.306;12.384;2023-07-29T05:19:38;99431.00;;;22.80
24639;BMP180;1641;51.306;12.384;2023-07-29T05:22:04;99438.00;;;22.80
24639;BMP180;1641;51.306;12.384;2023-07-29T05:24:29;99447.00;;;22.80
24639;BMP180;1641;51.306;12.384;2023-07-29T05:26:54;99446.00;;;23.00
24639;BMP180;1641;51.306;12.384;2023-07-29T05:29:20;99450.00;;;22.80
24639;BMP180;1641;51.306;12.384;2023-07-29T05:31:45;99462.00;;;22.90
24639;BMP180;1641;51.306;12.384;2023-07-29T05:34:10;99465.00;;;23.20
24639;BMP180;1641;51.306;12.384;2023-07-29T05:36:38;99468.00;;;23.40
24639;BMP180;1641;51.306;12.384;2023-07-29T05:39:04;99458.00;;;23.10
24639;BMP180;1641;51.306;12.384;2023-07-29T05:41:29;99460.00;;;23.40
24639;BMP180;1641;51.306;12.384;2023-07-29T05:43:54;99450.00;;;23.30
24639;BMP180;1641;51.306;12.384;2023-07-29T05:46:20;99464.00;;;23.00
24639;BMP180;1641;51.306;12.384;2023-07-29T05:48:45;99463.00;;;23.20
24639;BMP180;1641;51.306;12.384;2023-07-29T05:51:13;99454.00;;;23.40
24639;BMP180;1641;51.306;12.384;2023-07-29T05:53:38;99452.00;;;23.70
24639;BMP180;1641;51.306;12.384;2023-07-29T05:56:03;99459.00;;;24.80
24639;BMP180;1641;51.306;12.384;2023-07-29T05:58:29;99452.00;;;25.90
24639;BMP180;1641;51.306;12.384;2023-07-29T06:00:56;99447.00;;;26.20
24639;BMP180;1641;51.306;12.384;2023-07-29T06:03:22;99448.00;;;27.60
24639;BMP180;1641;51.306;12.384;2023-07-29T06:05:48;99451.00;;;28.40
24639;BMP180;1641;51.306;12.384;2023-07-29T06:08:14;99450.00;;;29.30
24639;BMP180;1641;51.306;12.384;2023-07-29T06:10:39;99451.00;;;28.90
24639;BMP180;1641;51.306;12.384;2023-07-29T06:13:04;99454.00;;;29.30
24639;BMP180;1641;51.306;12.384;2023-07-29T06:15:29;99446.00;;;28.70
24639;BMP180;1641;51.306;12.384;2023-07-29T06:17:55;99452.00;;;29.50
24639;BMP180;1641;51.306;12.384;2023-07-29T06:20:20;99445.00;;;29.60
24639;BMP180;1641;51.306;12.384;2023-07-29T06:22:45;99443.00;;;29.60
24639;BMP180;1641;51.306;12.384;2023-07-29T06:25:11;99446.00;;;29.20
24639;BMP180;1641;51.306;12.384;2023-07-29T06:27:36;99451.00;;;28.50
24639;BMP180;1641;51.306;12.384;2023-07-29T06:30:02;99450.00;;;28.70
24639;BMP180;1641;51.306;12.384;2023-07-29T06:32:27;99445.00;;;28.70
24639;BMP180;1641;51.306;12.384;2023-07-29T06:34:52;99436.00;;;29.00
24639;BMP180;1641;51.306;12.384;2023-07-29T06:37:28;99437.00;;;28.80
24639;BMP180;1641;51.306;12.384;2023-07-29T06:39:54;99435.00;;;28.80
24639;BMP180;1641;51.306;12.384;2023-07-29T06:42:19;99442.00;;;29.30
24639;BMP180;1641;51.306;12.384;2023-07-29T06:44:44;99448.00;;;29.80
24639;BMP180;1641;51.306;12.384;2023-07-29T06:47:11;99439.00;;;30.00
24639;BMP180;1641;51.306;12.384;2023-07-29T06:49:36;99446.00;;;30.20
24639;BMP180;1641;51.306;12.384;2023-07-29T06:52:01;99441.00;;;30.10
24639;BMP180;1641;51.306;12.384;2023-07-29T06:55:01;99448.00;;;28.20
24639;BMP180;1641;51.306;12.384;2023-07-29T06:57:27;99444.00;;;27.80
24639;BMP180;1641;51.306;12.384;2023-07-29T06:59:52;99438.00;;;28.90
24639;BMP180;1641;51.306;12.384;2023-07-29T07:02:17;99438.00;;;29.60
24639;BMP180;1641;51.306;12.384;2023-07-29T07:04:42;99444.00;;;29.60
24639;BMP180;1641;51.306;12.384;2023-07-29T07:07:08;99437.00;;;30.70
24639;BMP180;1641;51.306;12.384;2023-07-29T07:09:33;99444.00;;;31.70
24639;BMP180;1641;51.306;12.384;2023-07-29T07:12:01;99439.00;;;30.90
24639;BMP180;1641;51.306;12.384;2023-07-29T07:14:27;99441.00;;;30.70
24639;BMP180;1641;51.306;12.384;2023-07-29T07:16:52;99432.00;;;30.10
24639;BMP180;1641;51.306;12.384;2023-07-29T07:19:17;99433.00;;;30.10
24639;BMP180;1641;51.306;12.384;2023-07-29T07:21:43;99433.00;;;29.60
24639;BMP180;1641;51.306;12.384;2023-07-29T07:24:08;99425.00;;;29.60
24639;BMP180;1641;51.306;12.384;2023-07-29T07:26:34;99422.00;;;28.90
24639;BMP180;1641;51.306;12.384;2023-07-29T07:29:08;99429.00;;;28.60
24639;BMP180;1641;51.306;12.384;2023-07-29T07:31:50;99419.00;;;28.10
24639;BMP180;1641;51.306;12.384;2023-07-29T07:34:17;99419.00;;;28.00
24639;BMP180;1641;51.306;12.384;2023-07-29T07:36:42;99423.00;;;27.30
24639;BMP180;1641;51.306;12.384;2023-07-29T07:39:08;99391.00;;;27.10
24639;BMP180;1641;51.306;12.384;2023-07-29T07:41:33;99408.00;;;27.10
24639;BMP180;1641;51.306;12.384;2023-07-29T07:43:58;99403.00;;;27.80
24639;BMP180;1641;51.306;12.384;2023-07-29T07:46:23;99405.00;;;27.70
24639;BMP180;1641;51.306;12.384;2023-07-29T07:48:49;99407.00;;;27.40
24639;BMP180;1641;51.306;12.384;2023-07-29T07:51:14;99408.00;;;27.30
24639;BMP180;1641;51.306;12.384;2023-07-29T07:53:40;99402.00;;;27.20
24639;BMP180;1641;51.306;12.384;2023-07-29T07:56:06;99405.00;;;27.10
24639;BMP180;1641;51.306;12.384;2023-07-29T07:58:31;99408.00;;;26.70
24639;BMP180;1641;51.306;12.384;2023-07-29T08:01:04;99404.00;;;26.70
24639;BMP180;1641;51.306;12.384;2023-07-29T08:03:30;99384.00;;;26.90
24639;BMP180;1641;51.306;12.384;2023-07-29T08:05:55;99399.00;;;27.50
24639;BMP180;1641;51.306;12.384;2023-07-29T08:08:20;99406.00;;;27.60
24639;BMP180;1641;51.306;12.384;2023-07-29T08:10:45;99410.00;;;27.50
24639;BMP180;1641;51.306;12.384;2023-07-29T08:13:11;99405.00;;;27.40
24639;BMP180;1641;51.306;12.384;2023-07-29T08:15:36;99406.00;;;27.30
24639;BMP180;1641;51.306;12.384;2023-07-29T08:18:01;99406.00;;;27.00
24639;BMP180;1641;51.306;12.384;2023-07-29T08:20:26;99409.00;;;27.50
24639;BMP180;1641;51.306;12.384;2023-07-29T08:22:52;99388.00;;;27.40
24639;BMP180;1641;51.306;12.384;2023-07-29T08:25:17;99354.00;;;27.60
24639;BMP180;1641;51.306;12.384;2023-07-29T08:27:42;99381.00;;;28.10
24639;BMP180;1641;51.306;12.384;2023-07-29T08:30:08;99392.00;;;27.80
24639;BMP180;1641;51.306;12.384;2023-07-29T08:32:33;99391.00;;;26.90
24639;BMP180;1641;51.306;12.384;2023-07-29T08:34:59;99389.00;;;26.30
24639;BMP180;1641;51.306;12.384;2023-07-29T08:37:24;99395.00;;;26.20
24639;BMP180;1641;51.306;12.384;2023-07-29T08:39:49;99389.00;;;26.50
24639;BMP180;1641;51.306;12.384;2023-07-29T08:42:18;99387.00;;;26.70
24639;BMP180;1641;51.306;12.384;2023-07-29T08:44:45;99390.00;;;27.10
24639;BMP180;1641;51.306;12.384;2023-07-29T08:47:14;99383.00;;;27.20
24639;BMP180;1641;51.306;12.384;2023-07-29T08:49:40;99384.00;;;27.70
24639;BMP180;1641;51.306;12.384;2023-07-29T08:52:07;99385.00;;;27.70
24639;BMP180;1641;51.306;12.384;2023-07-29T08:54:32;99389.00;;;27.30
24639;BMP180;1641;51.306;12.384;2023-07-29T08:56:58;99365.00;;;27.30
24639;BMP180;1641;51.306;12.384;2023-07-29T08:59:25;99385.00;;;27.40
24639;BMP180;1641;51.306;12.384;2023-07-29T09:01:51;99373.00;;;28.20
24639;BMP180;1641;51.306;12.384;2023-07-29T09:04:20;99370.00;;;28.90
24639;BMP180;1641;51.306;12.384;2023-07-29T09:06:47;99370.00;;;28.60
24639;BMP180;1641;51.306;12.384;2023-07-29T09:09:13;99363.00;;;28.50
24639;BMP180;1641;51.306;12.384;2023-07-29T09:11:38;99357.00;;;29.10
24639;BMP180;1641;51.306;12.384;2023-07-29T09:14:03;99353.00;;;29.40
24639;BMP180;1641;51.306;12.384;2023-07-29T09:16:29;99369.00;;;29.00
24639;BMP180;1641;51.306;12.384;2023-07-29T09:18:54;99363.00;;;28.80
24639;BMP180;1641;51.306;12.384;2023-07-29T09:21:24;99377.00;;;28.00
24639;BMP180;1641;51.306;12.384;2023-07-29T09:23:54;99377.00;;;27.80
24639;BMP180;1641;51.306;12.384;2023-07-29T09:26:26;99376.00;;;27.90
24639;BMP180;1641;51.306;12.384;2023-07-29T09:28:54;99372.00;;;28.20
24639;BMP180;1641;51.306;12.384;2023-07-29T09:31:21;99377.00;;;28.50
24639;BMP180;1641;51.306;12.384;2023-07-29T09:33:46;99383.00;;;28.30
24639;BMP180;1641;51.306;12.384;2023-07-29T09:36:11;99384.00;;;28.40
24639;BMP180;1641;51.306;12.384;2023-07-29T09:38:37;99383.00;;;27.80
24639;BMP180;1641;51.306;12.384;2023-07-29T09:41:02;99381.00;;;27.20
24639;BMP180;1641;51.306;12.384;2023-07-29T09:43:33;99376.00;;;27.20
24639;BMP180;1641;51.306;12.384;2023-07-29T09:46:02;99376.00;;;27.50
24639;BMP180;1641;51.306;12.384;2023-07-29T09:48:32;99376.00;;;27.30
24639;BMP180;1641;51.306;12.384;2023-07-29T09:50:57;99360.00;;;26.60
24639;BMP180;1641;51.306;12.384;2023-07-29T09:53:22;99353.00;;;26.40
24639;BMP180;1641;51.306;12.384;2023-07-29T09:55:49;99382.00;;;26.90
24639;BMP180;1641;51.306;12.384;2023-07-29T09:58:19;99359.00;;;26.90
24639;BMP180;1641;51.306;12.384;2023-07-29T10:00:45;99352.00;;;27.40
24639;BMP180;1641;51.306;12.384;2023-07-29T10:03:11;99360.00;;;27.30
24639;BMP180;1641;51.306;12.384;2023-07-29T10:05:39;99357.00;;;27.40
24639;BMP180;1641;51.306;12.384;2023-07-29T10:08:06;99370.00;;;27.60
24639;BMP180;1641;51.306;12.384;2023-07-29T10:10:31;99362.00;;;27.70
24639;BMP180;1641;51.306;12.384;2023-07-29T10:12:57;99361.00;;;27.40
24639;BMP180;1641;51.306;12.384;2023-07-29T10:15:23;99368.00;;;27.60
24639;BMP180;1641;51.306;12.384;2023-07-29T10:17:49;99355.00;;;27.50
24639;BMP180;1641;51.306;12.384;2023-07-29T10:20:15;99359.00;;;27.10
24639;BMP180;1641;51.306;12.384;2023-07-29T10:22:42;99359.00;;;27.30
24639;BMP180;1641;51.306;12.384;2023-07-29T10:25:18;99369.00;;;27.60
24639;BMP180;1641;51.306;12.384;2023-07-29T10:27:53;99371.00;;;27.70
24639;BMP180;1641;51.306;12.384;2023-07-29T10:30:21;99354.00;;;27.50
24639;BMP180;1641;51.306;12.384;2023-07-29T10:32:48;99369.00;;;26.90
24639;BMP180;1641;51.306;12.384;2023-07-29T10:35:14;99372.00;;;26.60
24639;BMP180;1641;51.306;12.384;2023-07-29T10:37:40;99371.00;;;25.90
24639;BMP180;1641;51.306;12.384;2023-07-29T10:40:08;99369.00;;;25.60
24639;BMP180;1641;51.306;12.384;2023-07-29T10:42:33;99371.00;;;25.70
24639;BMP180;1641;51.306;12.384;2023-07-29T10:44:58;99363.00;;;26.30
24639;BMP180;1641;51.306;12.384;2023-07-29T10:47:26;99362.00;;;26.40
24639;BMP180;1641;51.306;12.384;2023-07-29T10:49:57;99360.00;;;26.90
24639;BMP180;1641;51.306;12.384;2023-07-29T10:52:37;99336.00;;;27.60
24639;BMP180;1641;51.306;12.384;2023-07-29T10:55:26;99341.00;;;27.50
24639;BMP180;1641;51.306;12.384;2023-07-29T10:57:52;99335.00;;;27.10
24639;BMP180;1641;51.306;12.384;2023-07-29T11:00:19;99333.00;;;27.10
24639;BMP180;1641;51.306;12.384;2023-07-29T11:02:59;99327.00;;;26.90
24639;BMP180;1641;51.306;12.384;2023-07-29T11:05:42;99324.00;;;26.50
24639;BMP180;1641;51.306;12.384;2023-07-29T11:08:31;99327.00;;;26.40
24639;BMP180;1641;51.306;12.384;2023-07-29T11:11:07;99325.00;;;26.50
24639;BMP180;1641;51.306;12.384;2023-07-29T11:13:37;99323.00;;;26.40
24639;BMP180;1641;51.306;12.384;2023-07-29T11:16:03;99319.00;;;26.70
24639;BMP180;1641;51.306;12.384;2023-07-29T11:18:30;99315.00;;;27.10
24639;BMP180;1641;51.306;12.384;2023-07-29T11:20:57;99315.00;;;27.60
24639;BMP180;1641;51.306;12.384;2023-07-29T11:23:36;99320.00;;;27.50
24639;BMP180;1641;51.306;12.384;2023-07-29T11:26:03;99305.00;;;26.90
24639;BMP180;1641;51.306;12.384;2023-07-29T11:28:28;99316.00;;;26.90
24639;BMP180;1641;51.306;12.384;2023-07-29T11:30:57;99324.00;;;27.00
24639;BMP180;1641;51.306;12.384;2023-07-29T11:33:27;99316.00;;;26.70
24639;BMP180;1641;51.306;12.384;2023-07-29T11:35:53;99315.00;;;27.00
24639;BMP180;1641;51.306;12.384;2023-07-29T11:38:20;99316.00;;;26.90
24639;BMP180;1641;51.306;12.384;2023-07-29T11:40:58;99308.00;;;26.80
24639;BMP180;1641;51.306;12.384;2023-07-29T11:43:24;99310.00;;;27.10
24639;BMP180;1641;51.306;12.384;2023-07-29T11:45:51;99308.00;;;27.00
24639;BMP180;1641;51.306;12.384;2023-07-29T11:48:17;99315.00;;;27.20
24639;BMP180;1641;51.306;12.384;2023-07-29T11:50:42;99316.00;;;27.60
24639;BMP180;1641;51.306;12.384;2023-07-29T11:53:08;99304.00;;;27.10
24639;BMP180;1641;51.306;12.384;2023-07-29T11:55:33;99306.00;;;27.20
24639;BMP180;1641;51.306;12.384;2023-07-29T11:58:01;99293.00;;;27.20
24639;BMP180;1641;51.306;12.384;2023-07-29T12:00:26;99299.00;;;27.40
24639;BMP180;1641;51.306;12.384;2023-07-29T12:02:52;99295.00;;;27.80
24639;BMP180;1641;51.306;12.384;2023-07-29T12:05:18;99299.00;;;27.80
24639;BMP180;1641;51.306;12.384;2023-07-29T12:07:46;99306.00;;;27.90
24639;BMP180;1641;51.306;12.384;2023-07-29T12:10:12;99289.00;;;27.90
24639;BMP180;1641;51.306;12.384;2023-07-29T12:12:44;99305.00;;;27.90
24639;BMP180;1641;51.306;12.384;2023-07-29T12:15:09;99308.00;;;27.70
24639;BMP180;1641;51.306;12.384;2023-07-29T12:17:40;99309.00;;;27.90
24639;BMP180;1641;51.306;12.384;2023-07-29T12:20:08;99314.00;;;27.90
24639;BMP180;1641;51.306;12.384;2023-07-29T12:22:33;99307.00;;;27.70
24639;BMP180;1641;51.306;12.384;2023-07-29T12:24:59;99306.00;;;27.40
24639;BMP180;1641;51.306;12.384;2023-07-29T12:27:24;99310.00;;;27.20
24639;BMP180;1641;51.306;12.384;2023-07-29T12:29:52;99317.00;;;27.50
24639;BMP180;1641;51.306;12.384;2023-07-29T12:32:18;99305.00;;;27.60
24639;BMP180;1641;51.306;12.384;2023-07-29T12:34:44;99306.00;;;27.00
24639;BMP180;1641;51.306;12.384;2023-07-29T12:37:09;99308.00;;;27.00
24639;BMP180;1641;51.306;12.384;2023-07-29T12:39:39;99308.00;;;27.50
24639;BMP180;1641;51.306;12.384;2023-07-29T12:42:05;99298.00;;;27.50
24639;BMP180;1641;51.306;12.384;2023-07-29T12:44:32;99292.00;;;27.90
24639;BMP180;1641;51.306;12.384;2023-07-29T12:46:59;99284.00;;;28.20
24639;BMP180;1641;51.306;12.384;2023-07-29T12:49:24;99294.00;;;28.20
24639;BMP180;1641;51.306;12.384;2023-07-29T12:51:50;99294.00;;;28.10
24639;BMP180;1641;51.306;12.384;2023-07-29T12:54:15;99295.00;;;28.20
24639;BMP180;1641;51.306;12.384;2023-07-29T12:56:40;99296.00;;;27.60
24639;BMP180;1641;51.306;12.384;2023-07-29T12:59:06;99285.00;;;28.00
24639;BMP180;1641;51.306;12.384;2023-07-29T13:01:32;99276.00;;;28.40
24639;BMP180;1641;51.306;12.384;2023-07-29T13:03:57;99284.00;;;28.70
24639;BMP180;1641;51.306;12.384;2023-07-29T13:06:22;99293.00;;;28.20
24639;BMP180;1641;51.306;12.384;2023-07-29T13:08:48;99284.00;;;27.80
24639;BMP180;1641;51.306;12.384;2023-07-29T13:11:15;99263.00;;;28.20
24639;BMP180;1641;51.306;12.384;2023-07-29T13:13:40;99270.00;;;28.60
24639;BMP180;1641;51.306;12.384;2023-07-29T13:16:05;99254.00;;;28.30
24639;BMP180;1641;51.306;12.384;2023-07-29T13:18:31;99247.00;;;28.20
24639;BMP180;1641;51.306;12.384;2023-07-29T13:20:56;99252.00;;;28.10
24639;BMP180;1641;51.306;12.384;2023-07-29T13:23:22;99258.00;;;28.40
24639;BMP180;1641;51.306;12.384;2023-07-29T13:25:47;99258.00;;;28.50
24639;BMP180;1641;51.306;12.384;2023-07-29T13:28:13;99255.00;;;28.80
24639;BMP180;1641;51.306;12.384;2023-07-29T13:30:41;99259.00;;;28.40
24639;BMP180;1641;51.306;12.384;2023-07-29T13:33:07;99255.00;;;27.90
24639;BMP180;1641;51.306;12.384;2023-07-29T13:35:32;99253.00;;;27.80
24639;BMP180;1641;51.306;12.384;2023-07-29T13:37:58;99263.00;;;27.90
24639;BMP180;1641;51.306;12.384;2023-07-29T13:40:23;99257.00;;;27.80
24639;BMP180;1641;51.306;12.384;2023-07-29T13:42:48;99245.00;;;27.90
24639;BMP180;1641;51.306;12.384;2023-07-29T13:45:14;99242.00;;;27.70
24639;BMP180;1641;51.306;12.384;2023-07-29T13:47:39;99238.00;;;27.90
24639;BMP180;1641;51.306;12.384;2023-07-29T13:50:05;99239.00;;;27.90
24639;BMP180;1641;51.306;12.384;2023-07-29T13:52:32;99181.00;;;28.00
24639;BMP180;1641;51.306;12.384;2023-07-29T13:54:57;99229.00;;;28.30
24639;BMP180;1641;51.306;12.384;2023-07-29T13:57:23;99228.00;;;28.30
24639;BMP180;1641;51.306;12.384;2023-07-29T13:59:48;99230.00;;;28.20
24639;BMP180;1641;51.306;12.384;2023-07-29T14:02:13;99216.00;;;28.20
24639;BMP180;1641;51.306;12.384;2023-07-29T14:04:39;99226.00;;;28.20
24639;BMP180;1641;51.306;12.384;2023-07-29T14:07:04;99214.00;;;28.20
24639;BMP180;1641;51.306;12.384;2023-07-29T14:09:33;99205.00;;;28.40